Time;durP1;ratioP1;P1;durP2;ratioP2;P2;SDS_P1;SDS_P2;PMS_P1;PMS_P2;Temp;Humidity;BMP_temperature;BMP_pressure;BME280_temperature;BME280_humidity;BME280_pressure;Samples;Min_cycle;Max_cycle;Signal;HPM_P1;HPM_P2
2022/08/02 00:01:12;;;;;;;;;;;20.60;99.90;;;;;;5118722;28;19908;-92
2022/08/02 00:03:39;;;;;;;;;;;20.60;99.90;;;;;;5118574;28;19930;-90
2022/08/02 00:06:06;;;;;;;;;;;20.50;99.90;;;;;;5118540;28;19984;-91
2022/08/02 00:08:32;;;;;;;;;;;20.50;99.90;;;;;;5118569;28;19912;-92
2022/08/02 00:10:59;;;;;;;;;;;20.50;99.90;;;;;;5118068;28;19915;-91
2022/08/02 00:13:26;;;;;;;;;;;20.50;99.90;;;;;;5126507;22;19915;-70
2022/08/02 00:15:52;;;;;;;;;;;20.50;99.90;;;;;;5084083;28;19983;-71
2022/08/02 00:18:20;;;;;;;;;;;20.40;99.90;;;;;;5082807;28;19928;-70
2022/08/02 00:20:47;;;;;;;;;;;20.50;99.90;;;;;;5083263;28;20180;-70
2022/08/02 00:23:13;;;;;;;;;;;20.40;99.90;;;;;;5083265;28;19927;-71
2022/08/02 00:25:40;;;;;;;;;;;20.40;99.90;;;;;;5092830;22;19956;-89
2022/08/02 00:28:07;;;;;;;;;;;20.40;99.90;;;;;;5083386;28;19920;-89
2022/08/02 00:30:34;;;;;;;;;;;20.40;99.90;;;;;;5083572;28;20219;-89
2022/08/02 00:33:01;;;;;;;;;;;20.40;99.90;;;;;;5082689;28;19928;-89
2022/08/02 00:35:29;;;;;;;;;;;20.40;99.90;;;;;;5083063;28;20016;-89
2022/08/02 00:37:56;;;;;;;;;;;20.30;99.90;;;;;;5082890;28;19984;-89
2022/08/02 00:40:23;;;;;;;;;;;20.30;99.90;;;;;;5096670;22;19951;-67
2022/08/02 00:43:03;;;;;;;;;;;20.30;99.90;;;;;;5083045;28;20114;-67
2022/08/02 00:45:29;;;;;;;;;;;20.30;99.90;;;;;;5082948;28;19921;-67
2022/08/02 00:47:56;;;;;;;;;;;20.20;99.90;;;;;;5083107;28;19959;-67
2022/08/02 00:50:22;;;;;;;;;;;20.30;99.90;;;;;;5088180;28;19995;-67
2022/08/02 00:52:50;;;;;;;;;;;20.20;99.90;;;;;;5103278;28;19920;-67
2022/08/02 00:55:17;;;;;;;;;;;20.20;99.90;;;;;;5103707;28;19926;-67
2022/08/02 00:57:44;;;;;;;;;;;20.20;99.90;;;;;;5103317;28;19983;-68
2022/08/02 01:00:11;;;;;;;;;;;20.10;99.90;;;;;;5103281;28;19920;-68
2022/08/02 01:02:37;;;;;;;;;;;20.00;99.90;;;;;;5103065;28;19962;-67
2022/08/02 01:05:04;;;;;;;;;;;19.90;99.90;;;;;;5102942;28;19927;-67
2022/08/02 01:07:31;;;;;;;;;;;19.80;99.90;;;;;;5103368;28;19954;-67
2022/08/02 01:09:59;;;;;;;;;;;19.70;99.90;;;;;;5103177;28;19983;-67
2022/08/02 01:12:26;;;;;;;;;;;19.60;99.90;;;;;;5103127;28;19926;-68
2022/08/02 01:14:55;;;;;;;;;;;19.60;99.90;;;;;;5102815;28;19986;-68
2022/08/02 01:17:28;;;;;;;;;;;19.60;99.90;;;;;;5103062;28;19920;-68
2022/08/02 01:19:57;;;;;;;;;;;19.60;99.90;;;;;;5103232;28;19951;-68
2022/08/02 01:22:45;;;;;;;;;;;19.60;99.90;;;;;;5103078;28;19940;-67
2022/08/02 01:25:18;;;;;;;;;;;19.60;99.90;;;;;;5097858;28;19920;-67
2022/08/02 01:27:51;;;;;;;;;;;19.50;99.90;;;;;;5103211;28;19927;-68
2022/08/02 01:30:19;;;;;;;;;;;19.50;99.90;;;;;;5105866;28;19920;-68
2022/08/02 01:32:50;;;;;;;;;;;19.40;99.90;;;;;;5106566;28;19948;-67
2022/08/02 01:35:19;;;;;;;;;;;19.30;99.90;;;;;;5106811;28;19920;-67
2022/08/02 01:37:58;;;;;;;;;;;19.30;99.90;;;;;;5107146;28;19995;-67
2022/08/02 01:40:27;;;;;;;;;;;19.30;99.90;;;;;;5106961;28;19943;-67
2022/08/02 01:42:56;;;;;;;;;;;19.30;99.90;;;;;;5106601;28;19959;-66
2022/08/02 01:45:26;;;;;;;;;;;19.20;99.90;;;;;;5106599;28;19971;-67
2022/08/02 01:47:53;;;;;;;;;;;19.10;99.90;;;;;;5106531;28;19982;-67
2022/08/02 01:50:21;;;;;;;;;;;19.00;99.90;;;;;;5106578;28;19967;-68
2022/08/02 01:52:50;;;;;;;;;;;19.00;99.90;;;;;;5106341;28;19987;-66
2022/08/02 01:55:20;;;;;;;;;;;18.90;99.90;;;;;;5106444;28;19920;-68
2022/08/02 01:57:48;;;;;;;;;;;18.80;99.90;;;;;;5106291;28;19920;-67
2022/08/02 02:00:16;;;;;;;;;;;18.80;99.90;;;;;;5106544;28;19947;-67
2022/08/02 02:02:46;;;;;;;;;;;18.80;99.90;;;;;;5106094;28;19946;-68
2022/08/02 02:05:14;;;;;;;;;;;18.70;99.90;;;;;;5106187;28;19939;-67
2022/08/02 02:07:42;;;;;;;;;;;18.70;99.90;;;;;;5106253;28;19951;-67
2022/08/02 02:10:11;;;;;;;;;;;18.70;99.90;;;;;;5106263;28;20186;-67
2022/08/02 02:12:39;;;;;;;;;;;18.60;99.90;;;;;;5106043;28;19920;-67
2022/08/02 02:15:08;;;;;;;;;;;18.60;99.90;;;;;;5105975;28;20161;-67
2022/08/02 02:17:35;;;;;;;;;;;18.60;99.90;;;;;;5105892;28;19952;-68
2022/08/02 02:20:04;;;;;;;;;;;18.50;99.90;;;;;;5106207;28;19920;-67
2022/08/02 02:22:32;;;;;;;;;;;18.50;99.90;;;;;;5105950;28;19943;-68
2022/08/02 02:24:59;;;;;;;;;;;18.50;99.90;;;;;;5105686;28;19947;-67
2022/08/02 02:27:26;;;;;;;;;;;18.40;99.90;;;;;;5105791;28;20122;-67
2022/08/02 02:29:53;;;;;;;;;;;18.30;99.90;;;;;;5105630;28;20290;-67
2022/08/02 02:32:21;;;;;;;;;;;18.20;99.90;;;;;;5105655;28;19951;-67
2022/08/02 02:34:48;;;;;;;;;;;18.10;99.90;;;;;;5105551;28;19952;-67
2022/08/02 02:37:18;;;;;;;;;;;18.00;99.90;;;;;;5105660;28;19992;-67
2022/08/02 02:39:45;;;;;;;;;;;18.10;99.90;;;;;;5105073;28;20096;-67
2022/08/02 02:42:13;;;;;;;;;;;18.00;99.90;;;;;;5105610;28;19952;-67
2022/08/02 02:44:40;;;;;;;;;;;18.00;99.90;;;;;;5105480;28;19951;-67
2022/08/02 02:47:08;;;;;;;;;;;18.00;99.90;;;;;;5105297;28;19926;-68
2022/08/02 02:49:36;;;;;;;;;;;17.90;99.90;;;;;;5105494;28;19928;-67
2022/08/02 02:52:03;;;;;;;;;;;17.90;99.90;;;;;;5105372;28;19948;-67
2022/08/02 02:54:31;;;;;;;;;;;17.90;99.90;;;;;;5104999;28;19920;-67
2022/08/02 02:56:58;;;;;;;;;;;17.90;99.90;;;;;;5105058;28;19958;-67
2022/08/02 02:59:25;;;;;;;;;;;17.90;99.90;;;;;;5105465;28;19951;-67
2022/08/02 03:01:53;;;;;;;;;;;18.00;99.90;;;;;;5105363;28;19920;-67
2022/08/02 03:04:20;;;;;;;;;;;18.00;99.90;;;;;;5104877;28;20172;-67
2022/08/02 03:06:47;;;;;;;;;;;18.00;99.90;;;;;;5105076;28;19927;-67
2022/08/02 03:09:14;;;;;;;;;;;18.00;99.90;;;;;;5105390;28;19951;-67
2022/08/02 03:11:42;;;;;;;;;;;18.00;99.90;;;;;;5105157;28;20170;-67
2022/08/02 03:14:09;;;;;;;;;;;18.00;99.90;;;;;;5104699;28;19958;-67
2022/08/02 03:16:41;;;;;;;;;;;17.90;99.90;;;;;;5105077;28;19920;-67
2022/08/02 03:19:08;;;;;;;;;;;17.90;99.90;;;;;;5104847;28;19920;-67
2022/08/02 03:21:34;;;;;;;;;;;17.80;99.90;;;;;;5104813;28;19951;-67
2022/08/02 03:24:01;;;;;;;;;;;17.80;99.90;;;;;;5104223;28;19958;-67
2022/08/02 03:26:28;;;;;;;;;;;17.80;99.90;;;;;;5104586;28;19999;-68
2022/08/02 03:28:56;;;;;;;;;;;17.80;99.90;;;;;;5105077;28;20186;-67
2022/08/02 03:31:22;;;;;;;;;;;17.70;99.90;;;;;;5104575;28;20231;-67
2022/08/02 03:33:49;;;;;;;;;;;17.70;99.90;;;;;;5104305;28;20151;-67
2022/08/02 03:36:19;;;;;;;;;;;17.60;99.90;;;;;;5104399;28;20187;-67
2022/08/02 03:38:45;;;;;;;;;;;17.60;99.90;;;;;;5104728;28;19935;-67
2022/08/02 03:41:13;;;;;;;;;;;17.60;99.90;;;;;;5104452;28;19951;-67
2022/08/02 03:43:42;;;;;;;;;;;17.60;99.90;;;;;;5104199;28;19928;-68
2022/08/02 03:46:12;;;;;;;;;;;17.60;99.90;;;;;;5104128;28;19989;-68
2022/08/02 03:48:39;;;;;;;;;;;17.50;99.90;;;;;;5104372;28;19962;-67
2022/08/02 03:51:06;;;;;;;;;;;17.50;99.90;;;;;;5103603;28;19927;-67
2022/08/02 03:53:33;;;;;;;;;;;17.40;99.90;;;;;;5103755;28;19962;-67
2022/08/02 03:56:00;;;;;;;;;;;17.40;99.90;;;;;;5104382;28;19923;-68
2022/08/02 03:58:27;;;;;;;;;;;17.40;99.90;;;;;;5104167;28;19967;-67
2022/08/02 04:00:54;;;;;;;;;;;17.40;99.90;;;;;;5104129;28;19992;-67
2022/08/02 04:03:22;;;;;;;;;;;17.20;99.90;;;;;;5103701;28;19958;-67
2022/08/02 04:05:49;;;;;;;;;;;17.10;99.90;;;;;;5103848;28;19983;-67
2022/08/02 04:08:15;;;;;;;;;;;17.00;99.90;;;;;;5104196;28;19931;-67
2022/08/02 04:13:28;;;;;;;;;;;17.00;99.90;;;;;;5103806;28;19922;-67
2022/08/02 04:15:57;;;;;;;;;;;17.00;99.90;;;;;;5103621;28;19951;-67
2022/08/02 04:18:29;;;;;;;;;;;17.00;99.90;;;;;;5104015;28;19926;-67
2022/08/02 04:20:57;;;;;;;;;;;17.10;99.90;;;;;;5103956;28;19959;-67
2022/08/02 04:23:25;;;;;;;;;;;17.10;99.90;;;;;;5103431;28;19951;-67
2022/08/02 04:25:52;;;;;;;;;;;17.10;99.90;;;;;;5103623;28;19920;-67
2022/08/02 04:28:19;;;;;;;;;;;17.10;99.90;;;;;;5103762;28;19954;-67
2022/08/02 04:30:46;;;;;;;;;;;17.10;99.90;;;;;;5103416;28;20002;-67
2022/08/02 04:33:13;;;;;;;;;;;17.10;99.90;;;;;;5103512;28;19942;-67
2022/08/02 04:35:41;;;;;;;;;;;17.10;99.90;;;;;;5103538;28;19955;-68
2022/08/02 04:38:08;;;;;;;;;;;17.10;99.90;;;;;;5103467;28;19935;-67
2022/08/02 04:40:35;;;;;;;;;;;17.10;99.90;;;;;;5103573;28;19920;-67
2022/08/02 04:43:01;;;;;;;;;;;17.10;99.90;;;;;;5103661;28;20164;-67
2022/08/02 04:45:29;;;;;;;;;;;17.20;99.90;;;;;;5103366;28;20203;-67
2022/08/02 04:47:56;;;;;;;;;;;17.20;99.90;;;;;;5103641;28;19987;-67
2022/08/02 04:50:22;;;;;;;;;;;17.20;99.90;;;;;;5103274;28;19979;-67
2022/08/02 04:52:50;;;;;;;;;;;17.20;99.90;;;;;;5103262;28;19955;-67
2022/08/02 04:55:17;;;;;;;;;;;17.20;99.90;;;;;;5103408;28;19959;-66
2022/08/02 04:57:56;;;;;;;;;;;17.40;99.90;;;;;;5103258;28;19955;-67
2022/08/02 05:00:23;;;;;;;;;;;17.30;99.90;;;;;;5103452;28;19970;-67
2022/08/02 05:02:51;;;;;;;;;;;17.40;99.90;;;;;;5103710;28;19974;-67
2022/08/02 05:05:18;;;;;;;;;;;17.40;99.90;;;;;;5107403;28;19924;-67
2022/08/02 05:07:45;;;;;;;;;;;17.50;99.90;;;;;;5107348;28;19920;-67
2022/08/02 05:10:13;;;;;;;;;;;17.60;99.90;;;;;;5107181;28;19927;-66
2022/08/02 05:12:40;;;;;;;;;;;17.60;99.90;;;;;;5107102;28;20207;-67
2022/08/02 05:15:08;;;;;;;;;;;17.70;99.90;;;;;;5107317;28;20155;-67
2022/08/02 05:17:35;;;;;;;;;;;17.80;99.90;;;;;;5107064;28;19920;-67
2022/08/02 05:20:02;;;;;;;;;;;17.90;99.90;;;;;;5107266;28;19927;-67
2022/08/02 05:22:28;;;;;;;;;;;17.90;99.90;;;;;;5107022;28;20134;-67
2022/08/02 05:24:55;;;;;;;;;;;17.80;99.90;;;;;;5107065;28;19934;-67
2022/08/02 05:27:23;;;;;;;;;;;17.90;99.90;;;;;;5107282;28;19992;-67
2022/08/02 05:29:50;;;;;;;;;;;17.90;99.90;;;;;;5106924;28;19952;-68
2022/08/02 05:32:17;;;;;;;;;;;18.00;99.90;;;;;;5106810;28;20002;-67
2022/08/02 05:34:44;;;;;;;;;;;18.10;99.90;;;;;;5106604;28;19952;-67
2022/08/02 05:37:10;;;;;;;;;;;18.10;99.90;;;;;;5106718;28;19959;-67
2022/08/02 05:39:37;;;;;;;;;;;18.20;99.90;;;;;;5106832;28;19951;-68
2022/08/02 05:42:04;;;;;;;;;;;18.30;99.90;;;;;;5106843;28;19955;-67
2022/08/02 05:44:32;;;;;;;;;;;18.40;99.90;;;;;;5106496;28;19943;-67
2022/08/02 05:46:58;;;;;;;;;;;18.40;99.90;;;;;;5106595;28;19987;-67
2022/08/02 05:49:25;;;;;;;;;;;18.50;99.90;;;;;;5106630;28;19986;-67
2022/08/02 05:51:56;;;;;;;;;;;18.60;99.90;;;;;;5105497;28;19932;-67
2022/08/02 05:54:26;;;;;;;;;;;18.60;99.90;;;;;;5106112;28;20111;-68
2022/08/02 05:56:56;;;;;;;;;;;18.70;99.90;;;;;;5106108;28;19955;-67
2022/08/02 05:59:31;;;;;;;;;;;18.70;99.90;;;;;;5106344;28;19920;-67
2022/08/02 06:02:09;;;;;;;;;;;18.80;99.90;;;;;;5106360;28;19983;-67
2022/08/02 06:04:44;;;;;;;;;;;18.80;99.90;;;;;;5106292;28;19991;-67
2022/08/02 06:07:12;;;;;;;;;;;18.80;99.90;;;;;;5106219;28;20165;-66
2022/08/02 06:09:40;;;;;;;;;;;18.90;99.90;;;;;;5106211;28;19956;-66
2022/08/02 06:12:08;;;;;;;;;;;18.90;99.90;;;;;;5106197;28;20039;-67
2022/08/02 06:14:35;;;;;;;;;;;19.00;99.90;;;;;;5105249;28;19983;-68
2022/08/02 06:17:05;;;;;;;;;;;19.00;99.90;;;;;;5105879;28;19979;-67
2022/08/02 06:19:32;;;;;;;;;;;19.00;99.90;;;;;;5106033;28;19955;-67
2022/08/02 06:22:13;;;;;;;;;;;19.10;99.90;;;;;;5106210;28;19943;-67
2022/08/02 06:24:42;;;;;;;;;;;19.10;99.90;;;;;;5104616;28;19962;-67
2022/08/02 06:27:09;;;;;;;;;;;19.10;99.90;;;;;;5106349;28;20007;-67
2022/08/02 06:29:36;;;;;;;;;;;19.20;99.90;;;;;;5105704;28;20176;-67
2022/08/02 06:32:05;;;;;;;;;;;19.20;99.90;;;;;;5105937;28;19930;-67
2022/08/02 06:34:35;;;;;;;;;;;19.20;99.90;;;;;;5105602;28;19988;-67
2022/08/02 06:37:07;;;;;;;;;;;19.30;99.90;;;;;;5105476;28;20228;-68
2022/08/02 06:39:42;;;;;;;;;;;19.30;99.90;;;;;;5105686;28;19920;-67
2022/08/02 06:42:12;;;;;;;;;;;19.30;99.90;;;;;;5105704;28;19927;-67
2022/08/02 06:44:38;;;;;;;;;;;19.40;99.90;;;;;;5104353;28;19983;-67
2022/08/02 06:47:07;;;;;;;;;;;19.40;99.90;;;;;;5104386;28;19987;-67
2022/08/02 06:49:34;;;;;;;;;;;19.50;99.90;;;;;;5105572;28;19951;-67
2022/08/02 06:52:00;;;;;;;;;;;19.60;99.90;;;;;;5105475;28;19988;-67
2022/08/02 06:54:30;;;;;;;;;;;19.70;99.90;;;;;;5108966;22;20147;-70
2022/08/02 06:56:56;;;;;;;;;;;19.90;99.90;;;;;;5084632;28;20183;-70
2022/08/02 06:59:23;;;;;;;;;;;19.90;99.90;;;;;;5085032;28;19951;-70
2022/08/02 07:01:50;;;;;;;;;;;20.00;99.90;;;;;;5085186;28;19952;-71
2022/08/02 07:04:18;;;;;;;;;;;20.00;99.90;;;;;;5084533;28;19984;-71
2022/08/02 07:06:44;;;;;;;;;;;20.10;99.90;;;;;;5104687;28;20168;-71
2022/08/02 07:09:11;;;;;;;;;;;20.10;99.90;;;;;;5105019;28;19928;-71
2022/08/02 07:11:38;;;;;;;;;;;20.30;99.90;;;;;;5105045;28;19987;-70
2022/08/02 07:14:04;;;;;;;;;;;20.30;99.90;;;;;;5104641;28;19927;-71
2022/08/02 07:16:32;;;;;;;;;;;20.40;99.90;;;;;;5105315;28;19962;-70
2022/08/02 07:18:59;;;;;;;;;;;20.50;99.90;;;;;;5105261;28;19920;-71
2022/08/02 07:21:27;;;;;;;;;;;20.60;99.90;;;;;;5104694;28;19947;-71
2022/08/02 07:23:53;;;;;;;;;;;20.60;99.90;;;;;;5103783;28;20279;-70
2022/08/02 07:26:20;;;;;;;;;;;20.70;99.90;;;;;;5104648;28;20196;-71
2022/08/02 07:28:46;;;;;;;;;;;20.70;99.90;;;;;;5104560;28;20180;-70
2022/08/02 07:31:13;;;;;;;;;;;20.80;99.90;;;;;;5104478;28;20000;-70
2022/08/02 07:33:40;;;;;;;;;;;20.90;99.90;;;;;;5104217;28;20115;-70
2022/08/02 07:36:07;;;;;;;;;;;20.90;99.90;;;;;;5104359;28;19943;-71
2022/08/02 07:38:35;;;;;;;;;;;21.00;99.90;;;;;;5104610;28;19965;-70
2022/08/02 07:41:02;;;;;;;;;;;21.10;99.90;;;;;;5104514;28;19927;-70
2022/08/02 07:43:29;;;;;;;;;;;21.20;99.90;;;;;;5103641;28;19921;-70
2022/08/02 07:45:55;;;;;;;;;;;21.20;99.90;;;;;;5103638;28;19959;-70
2022/08/02 07:48:22;;;;;;;;;;;21.30;99.90;;;;;;5104479;28;19919;-70
2022/08/02 07:50:49;;;;;;;;;;;21.40;99.90;;;;;;5104041;28;19934;-70
2022/08/02 07:53:15;;;;;;;;;;;21.40;99.90;;;;;;5103980;28;20223;-70
2022/08/02 07:55:44;;;;;;;;;;;21.50;99.90;;;;;;5103932;28;19963;-70
2022/08/02 07:58:11;;;;;;;;;;;21.70;99.90;;;;;;5104101;28;19963;-71
2022/08/02 08:00:37;;;;;;;;;;;21.70;99.90;;;;;;5104025;28;19956;-70
2022/08/02 08:03:05;;;;;;;;;;;21.80;99.90;;;;;;5103740;28;19920;-70
2022/08/02 08:05:31;;;;;;;;;;;21.80;99.90;;;;;;5104147;28;19943;-70
2022/08/02 08:07:58;;;;;;;;;;;21.80;99.90;;;;;;5104073;28;20194;-71
2022/08/02 08:10:25;;;;;;;;;;;21.80;99.90;;;;;;5104030;28;20115;-70
2022/08/02 08:12:54;;;;;;;;;;;21.90;99.90;;;;;;5103505;28;20251;-71
2022/08/02 08:15:20;;;;;;;;;;;22.00;99.90;;;;;;5103986;28;19927;-70
2022/08/02 08:17:47;;;;;;;;;;;22.10;99.90;;;;;;5103564;28;19988;-70
2022/08/02 08:20:14;;;;;;;;;;;22.20;99.90;;;;;;5104011;28;19964;-71
2022/08/02 08:22:43;;;;;;;;;;;22.30;99.90;;;;;;5103698;28;19983;-70
2022/08/02 08:25:10;;;;;;;;;;;22.40;99.90;;;;;;5102875;28;19927;-73
2022/08/02 08:27:36;;;;;;;;;;;22.50;99.90;;;;;;5103778;28;19962;-70
2022/08/02 08:30:05;;;;;;;;;;;22.60;99.90;;;;;;5103590;28;19967;-71
2022/08/02 08:32:31;;;;;;;;;;;22.60;99.90;;;;;;5103495;28;19959;-70
2022/08/02 08:34:58;;;;;;;;;;;22.70;99.90;;;;;;5103325;28;20203;-71
2022/08/02 08:37:26;;;;;;;;;;;22.70;99.90;;;;;;5103130;28;19920;-70
2022/08/02 08:39:52;;;;;;;;;;;22.90;99.90;;;;;;5103475;28;19931;-70
2022/08/02 08:42:20;;;;;;;;;;;23.00;99.90;;;;;;5103532;28;20123;-71
2022/08/02 08:44:46;;;;;;;;;;;23.00;99.90;;;;;;5102777;28;19951;-70
2022/08/02 08:47:14;;;;;;;;;;;23.10;99.90;;;;;;5103646;28;20160;-71
2022/08/02 08:49:44;;;;;;;;;;;23.30;99.90;;;;;;5103313;28;19987;-71
2022/08/02 08:52:12;;;;;;;;;;;23.40;99.90;;;;;;5103411;28;20143;-71
2022/08/02 08:54:40;;;;;;;;;;;23.40;99.90;;;;;;5102936;28;20225;-70
2022/08/02 08:57:06;;;;;;;;;;;23.50;99.90;;;;;;5103306;28;19999;-71
2022/08/02 08:59:33;;;;;;;;;;;23.60;99.90;;;;;;5103311;28;19942;-71
2022/08/02 09:02:00;;;;;;;;;;;23.80;99.90;;;;;;5103512;28;19955;-71
2022/08/02 09:04:28;;;;;;;;;;;23.80;99.90;;;;;;5103057;28;19979;-71
2022/08/02 09:06:55;;;;;;;;;;;23.90;99.90;;;;;;5103235;28;19955;-71
2022/08/02 09:09:22;;;;;;;;;;;24.00;99.90;;;;;;5103595;28;19927;-71
2022/08/02 09:11:49;;;;;;;;;;;24.10;99.90;;;;;;5103675;28;19983;-70
2022/08/02 09:14:25;;;;;;;;;;;24.20;99.90;;;;;;5102776;28;20203;-70
2022/08/02 09:16:52;;;;;;;;;;;24.10;99.90;;;;;;5103306;28;19955;-71
2022/08/02 09:19:19;;;;;;;;;;;24.30;99.90;;;;;;5103263;28;19983;-70
2022/08/02 09:21:48;;;;;;;;;;;24.30;99.90;;;;;;5103316;28;19989;-71
2022/08/02 09:24:17;;;;;;;;;;;24.30;99.90;;;;;;5101762;28;19983;-70
2022/08/02 09:26:44;;;;;;;;;;;24.30;99.90;;;;;;5103068;28;19923;-70
2022/08/02 09:29:11;;;;;;;;;;;24.40;99.90;;;;;;5103198;28;19965;-71
2022/08/02 09:31:37;;;;;;;;;;;24.50;99.90;;;;;;5103043;28;19920;-71
2022/08/02 09:34:04;;;;;;;;;;;24.70;99.90;;;;;;5102696;28;20166;-71
2022/08/02 09:36:37;;;;;;;;;;;24.80;99.90;;;;;;5102879;28;19992;-71
2022/08/02 09:39:06;;;;;;;;;;;24.90;99.90;;;;;;5102649;28;20092;-70
2022/08/02 09:41:36;;;;;;;;;;;24.90;99.90;;;;;;5102693;28;19951;-71
2022/08/02 09:44:04;;;;;;;;;;;24.90;99.90;;;;;;5102356;28;19947;-70
2022/08/02 09:46:32;;;;;;;;;;;24.90;99.90;;;;;;5102513;28;19987;-71
2022/08/02 09:48:59;;;;;;;;;;;25.00;99.90;;;;;;5102748;28;19958;-71
2022/08/02 09:51:28;;;;;;;;;;;25.00;99.90;;;;;;5104563;28;20139;-71
2022/08/02 09:53:56;;;;;;;;;;;25.10;99.90;;;;;;5105856;28;19952;-70
2022/08/02 09:56:25;;;;;;;;;;;25.20;99.90;;;;;;5106417;28;19991;-71
2022/08/02 09:58:53;;;;;;;;;;;25.30;99.90;;;;;;5106444;28;19991;-70
2022/08/02 10:01:20;;;;;;;;;;;25.40;99.90;;;;;;5106819;28;19920;-71
2022/08/02 10:03:53;;;;;;;;;;;25.50;99.90;;;;;;5105823;28;20175;-71
2022/08/02 10:06:20;;;;;;;;;;;25.70;99.90;;;;;;5106217;28;19959;-71
2022/08/02 10:08:47;;;;;;;;;;;25.80;99.90;;;;;;5106383;28;20166;-70
2022/08/02 10:11:13;;;;;;;;;;;25.90;99.90;;;;;;5106692;28;19920;-70
2022/08/02 10:13:42;;;;;;;;;;;26.00;99.90;;;;;;5105727;28;20279;-71
2022/08/02 10:16:09;;;;;;;;;;;26.10;99.90;;;;;;5105997;28;20166;-71
2022/08/02 10:18:36;;;;;;;;;;;26.20;99.90;;;;;;5105923;28;20262;-70
2022/08/02 10:21:06;;;;;;;;;;;26.20;99.90;;;;;;5106217;28;19920;-70
2022/08/02 10:23:34;;;;;;;;;;;26.20;99.90;;;;;;5104601;28;20227;-70
2022/08/02 10:26:00;;;;;;;;;;;26.10;99.90;;;;;;5105947;28;19991;-71
2022/08/02 10:28:29;;;;;;;;;;;26.10;99.90;;;;;;5105958;28;19920;-71
2022/08/02 10:30:57;;;;;;;;;;;26.10;99.90;;;;;;5105784;28;19920;-70
2022/08/02 10:33:26;;;;;;;;;;;26.30;99.90;;;;;;5105586;28;19943;-71
2022/08/02 10:35:56;;;;;;;;;;;26.40;99.90;;;;;;5105940;28;19984;-71
2022/08/02 10:38:23;;;;;;;;;;;26.40;99.90;;;;;;5105845;28;19927;-70
2022/08/02 10:40:51;;;;;;;;;;;26.30;99.90;;;;;;5105622;28;20268;-70
2022/08/02 10:43:38;;;;;;;;;;;26.30;99.90;;;;;;5105448;28;20245;-70
2022/08/02 10:46:38;;;;;;;;;;;26.20;99.90;;;;;;5100365;28;19985;-71
2022/08/02 10:49:09;;;;;;;;;;;26.40;99.90;;;;;;5043512;28;19921;-71
2022/08/02 10:51:54;;;;;;;;;;;26.60;99.90;;;;;;5043215;28;19922;-71
2022/08/02 10:54:24;;;;;;;;;;;26.80;99.90;;;;;;5079313;28;19920;-68
2022/08/02 10:56:52;;;;;;;;;;;27.00;99.90;;;;;;5105505;28;20008;-71
2022/08/02 10:59:25;;;;;;;;;;;27.10;99.90;;;;;;5105307;28;19955;-71
2022/08/02 11:01:59;;;;;;;;;;;27.30;99.90;;;;;;5104863;28;19920;-71
2022/08/02 11:04:28;;;;;;;;;;;27.40;99.90;;;;;;5104834;28;19985;-70
2022/08/02 11:07:12;;;;;;;;;;;27.70;99.90;;;;;;5105001;28;19992;-70
2022/08/02 11:09:39;;;;;;;;;;;27.80;99.90;;;;;;5105343;28;19920;-70
2022/08/02 11:12:07;;;;;;;;;;;28.00;99.90;;;;;;5104959;28;20002;-71
2022/08/02 11:14:35;;;;;;;;;;;28.20;99.90;;;;;;5104963;28;19958;-71
2022/08/02 11:17:05;;;;;;;;;;;28.40;99.90;;;;;;5105147;28;19920;-71
2022/08/02 11:19:34;;;;;;;;;;;28.50;99.90;;;;;;5105089;28;19920;-70
2022/08/02 11:22:01;;;;;;;;;;;28.60;99.90;;;;;;5104879;28;19923;-71
2022/08/02 11:24:30;;;;;;;;;;;28.70;99.90;;;;;;5103712;28;19987;-71
2022/08/02 11:26:57;;;;;;;;;;;28.70;99.90;;;;;;5104888;28;19920;-71
2022/08/02 11:29:31;;;;;;;;;;;28.90;99.90;;;;;;5104647;28;19927;-71
2022/08/02 11:31:58;;;;;;;;;;;28.90;99.90;;;;;;5104881;28;19982;-70
2022/08/02 11:34:25;;;;;;;;;;;28.70;99.90;;;;;;5104529;28;19920;-71
2022/08/02 11:36:53;;;;;;;;;;;28.70;99.90;;;;;;5104456;28;20170;-70
2022/08/02 11:39:21;;;;;;;;;;;28.80;99.90;;;;;;5104510;28;19951;-71
2022/08/02 11:41:51;;;;;;;;;;;28.80;99.90;;;;;;5104363;28;20266;-71
2022/08/02 11:44:18;;;;;;;;;;;29.00;99.90;;;;;;5104285;28;19999;-70
2022/08/02 11:46:45;;;;;;;;;;;29.20;99.90;;;;;;5104446;28;19951;-70
2022/08/02 11:49:16;;;;;;;;;;;29.40;99.90;;;;;;5104472;28;19951;-70
2022/08/02 11:51:50;;;;;;;;;;;29.40;99.90;;;;;;5103593;28;20152;-70
2022/08/02 11:54:23;;;;;;;;;;;29.50;99.90;;;;;;5103577;28;19999;-71
2022/08/02 11:56:50;;;;;;;;;;;29.70;99.90;;;;;;5104205;28;19999;-71
2022/08/02 11:59:17;;;;;;;;;;;29.70;99.90;;;;;;5104391;28;19958;-71
2022/08/02 12:01:44;;;;;;;;;;;29.80;99.90;;;;;;5104223;28;20163;-71
2022/08/02 12:04:10;;;;;;;;;;;29.90;99.90;;;;;;5104164;28;20146;-70
2022/08/02 12:06:37;;;;;;;;;;;30.10;99.90;;;;;;5103952;28;19952;-70
2022/08/02 12:09:04;;;;;;;;;;;30.20;99.90;;;;;;5103838;28;20172;-71
2022/08/02 12:11:32;;;;;;;;;;;30.40;99.30;;;;;;5104160;28;19928;-70
2022/08/02 12:13:59;;;;;;;;;;;30.60;99.40;;;;;;5102838;28;19924;-71
2022/08/02 12:19:22;;;;;;;;;;;30.50;98.30;;;;;;5103860;28;19938;-70
2022/08/02 12:21:49;;;;;;;;;;;30.50;97.50;;;;;;5103941;28;19920;-72
2022/08/02 12:24:27;;;;;;;;;;;30.50;97.90;;;;;;5102725;28;19991;-71
2022/08/02 12:26:55;;;;;;;;;;;30.60;98.50;;;;;;5103931;28;19920;-70
2022/08/02 12:29:32;;;;;;;;;;;30.40;97.70;;;;;;5103633;28;20122;-71
2022/08/02 12:31:59;;;;;;;;;;;30.20;98.40;;;;;;5103377;28;19983;-70
2022/08/02 12:34:26;;;;;;;;;;;30.20;99.00;;;;;;5103304;28;19942;-70
2022/08/02 12:37:04;;;;;;;;;;;30.40;98.00;;;;;;5103672;28;19921;-71
2022/08/02 12:39:35;;;;;;;;;;;30.40;98.80;;;;;;5103514;28;19920;-70
2022/08/02 12:42:03;;;;;;;;;;;30.50;98.20;;;;;;5103597;28;19955;-70
2022/08/02 12:44:29;;;;;;;;;;;30.80;97.80;;;;;;5103062;28;20164;-70
2022/08/02 12:46:59;;;;;;;;;;;31.00;97.30;;;;;;5103578;28;19982;-70
2022/08/02 12:49:26;;;;;;;;;;;31.00;96.80;;;;;;5103560;28;19994;-70
2022/08/02 12:51:53;;;;;;;;;;;30.90;96.00;;;;;;5103541;28;19927;-70
2022/08/02 12:54:21;;;;;;;;;;;30.70;95.50;;;;;;5113570;22;19944;-68
2022/08/02 12:56:48;;;;;;;;;;;30.40;95.50;;;;;;5083109;28;19920;-68
2022/08/02 12:59:16;;;;;;;;;;;30.10;95.60;;;;;;5083289;28;19927;-68
2022/08/02 13:01:44;;;;;;;;;;;29.80;95.70;;;;;;5083216;28;19987;-67
2022/08/02 13:04:11;;;;;;;;;;;29.60;96.10;;;;;;5082742;28;19952;-67
2022/08/02 13:06:37;;;;;;;;;;;29.60;96.30;;;;;;5083099;28;19921;-67
2022/08/02 13:09:12;;;;;;;;;;;29.80;96.70;;;;;;5083150;28;19948;-67
2022/08/02 13:11:38;;;;;;;;;;;30.20;96.30;;;;;;5083036;28;19928;-67
2022/08/02 13:14:05;;;;;;;;;;;30.70;96.40;;;;;;5082593;28;20007;-68
2022/08/02 13:16:34;;;;;;;;;;;31.00;95.80;;;;;;5082955;28;19927;-68
2022/08/02 13:19:00;;;;;;;;;;;31.30;95.10;;;;;;5082999;28;19924;-68
2022/08/02 13:21:27;;;;;;;;;;;31.50;94.50;;;;;;5082988;28;19971;-68
2022/08/02 13:23:54;;;;;;;;;;;31.50;94.50;;;;;;5074676;28;20140;-67
2022/08/02 13:26:20;;;;;;;;;;;31.70;94.60;;;;;;5087001;28;19987;-68
2022/08/02 13:28:47;;;;;;;;;;;31.90;92.90;;;;;;5086939;28;19987;-68
2022/08/02 13:31:14;;;;;;;;;;;31.60;92.30;;;;;;5086821;28;19920;-68
2022/08/02 13:33:42;;;;;;;;;;;31.40;93.10;;;;;;5098837;28;19987;-67
2022/08/02 13:36:08;;;;;;;;;;;31.10;93.80;;;;;;5106707;28;19990;-68
2022/08/02 13:38:35;;;;;;;;;;;30.70;93.90;;;;;;5107238;28;20196;-68
2022/08/02 13:41:12;;;;;;;;;;;30.70;94.10;;;;;;5106790;28;20183;-68
2022/08/02 13:43:39;;;;;;;;;;;30.40;93.40;;;;;;5106574;28;19927;-68
2022/08/02 13:46:06;;;;;;;;;;;30.00;93.40;;;;;;5106853;28;19987;-67
2022/08/02 13:48:33;;;;;;;;;;;29.60;93.80;;;;;;5106623;28;19927;-68
2022/08/02 13:51:02;;;;;;;;;;;29.60;94.10;;;;;;5106010;28;19987;-68
2022/08/02 13:53:29;;;;;;;;;;;29.80;93.90;;;;;;5106582;28;19979;-68
2022/08/02 13:55:57;;;;;;;;;;;30.30;94.50;;;;;;5106606;28;19979;-68
2022/08/02 13:58:24;;;;;;;;;;;30.70;94.10;;;;;;5106527;28;19986;-68
2022/08/02 14:00:50;;;;;;;;;;;31.20;94.60;;;;;;5106440;28;19991;-68
2022/08/02 14:03:17;;;;;;;;;;;31.40;92.80;;;;;;5106134;28;19927;-67
2022/08/02 14:05:44;;;;;;;;;;;31.80;92.20;;;;;;5106065;28;19920;-68
2022/08/02 14:08:12;;;;;;;;;;;31.90;91.40;;;;;;5106456;28;19920;-68
2022/08/02 14:10:39;;;;;;;;;;;31.80;91.20;;;;;;5106376;28;19920;-67
2022/08/02 14:13:06;;;;;;;;;;;31.60;90.70;;;;;;5106045;28;20092;-68
2022/08/02 14:15:33;;;;;;;;;;;31.40;91.40;;;;;;5106035;28;20176;-68
2022/08/02 14:17:59;;;;;;;;;;;31.20;91.40;;;;;;5106033;28;20177;-68
2022/08/02 14:20:26;;;;;;;;;;;31.30;91.90;;;;;;5106007;28;19995;-68
2022/08/02 14:22:53;;;;;;;;;;;31.60;91.10;;;;;;5105782;28;19965;-67
2022/08/02 14:25:21;;;;;;;;;;;31.90;92.50;;;;;;5105068;28;19958;-68
2022/08/02 14:27:48;;;;;;;;;;;32.30;91.10;;;;;;5105963;28;19920;-68